Eastman, Canada
Current Conditions -  °F | °C
As of 9:15 AM on Tuesday 27 Jan 2015 (Local Time) from KEFK Reporting Station
Overcast Overcast  
Wind Chill: -15°   Ceiling: 9000
Heat Index:   Visibility: 10mi
Dew Point: -5°   Wind: 17mph
Humidity: 65%   Direction: 350°N
Pressure: 29.9"   Gusts: NA
Location:  45.3°N, 72.32°W
Report Text: KEFK 271415Z AUTO 35015KT 10SM OVC090 M15/M20 A2990 RMK AO2 T11521205
Loading
Personal Weather Stations






























Interactive Weather Map New forecast layout! Learn more

10-Day Weather Forecast

Advertisements
Track Severe Weather on mobile